sensor_id;sensor_type;location;lat;lon;timestamp;temperature;humidity
3550;DHT22;45572;48.804;8.330;2023-04-25T00:00:22;9.40;94.80
3550;DHT22;45572;48.804;8.330;2023-04-25T00:02:51;9.50;95.30
3550;DHT22;45572;48.804;8.330;2023-04-25T00:05:19;9.50;95.60
3550;DHT22;45572;48.804;8.330;2023-04-25T00:07:50;9.60;95.70
3550;DHT22;45572;48.804;8.330;2023-04-25T00:10:18;9.70;95.40
3550;DHT22;45572;48.804;8.330;2023-04-25T00:12:46;9.80;95.10
3550;DHT22;45572;48.804;8.330;2023-04-25T00:15:14;9.80;94.60
3550;DHT22;45572;48.804;8.330;2023-04-25T00:17:42;9.90;95.10
3550;DHT22;45572;48.804;8.330;2023-04-25T00:20:13;10.00;95.20
3550;DHT22;45572;48.804;8.330;2023-04-25T00:22:42;9.90;95.10
3550;DHT22;45572;48.804;8.330;2023-04-25T00:25:09;9.90;95.10
3550;DHT22;45572;48.804;8.330;2023-04-25T00:27:37;9.90;95.20
3550;DHT22;45572;48.804;8.330;2023-04-25T00:30:06;9.90;95.30
3550;DHT22;45572;48.804;8.330;2023-04-25T00:32:34;9.80;95.30
3550;DHT22;45572;48.804;8.330;2023-04-25T00:35:02;9.80;95.40
3550;DHT22;45572;48.804;8.330;2023-04-25T00:37:31;9.80;95.60
3550;DHT22;45572;48.804;8.330;2023-04-25T00:39:59;9.90;95.70
3550;DHT22;45572;48.804;8.330;2023-04-25T00:42:28;9.90;95.70
3550;DHT22;45572;48.804;8.330;2023-04-25T00:44:57;9.90;95.70
3550;DHT22;45572;48.804;8.330;2023-04-25T00:47:25;10.00;95.50
3550;DHT22;45572;48.804;8.330;2023-04-25T00:49:53;9.80;95.00
3550;DHT22;45572;48.804;8.330;2023-04-25T00:52:21;9.80;95.40
3550;DHT22;45572;48.804;8.330;2023-04-25T00:54:50;9.80;95.70
3550;DHT22;45572;48.804;8.330;2023-04-25T00:57:18;9.90;95.70
3550;DHT22;45572;48.804;8.330;2023-04-25T00:59:46;9.90;94.80
3550;DHT22;45572;48.804;8.330;2023-04-25T01:02:14;9.90;94.50
3550;DHT22;45572;48.804;8.330;2023-04-25T01:04:42;9.90;94.50
3550;DHT22;45572;48.804;8.330;2023-04-25T01:07:10;9.90;94.70
3550;DHT22;45572;48.804;8.330;2023-04-25T01:09:38;9.90;94.80
3550;DHT22;45572;48.804;8.330;2023-04-25T01:12:07;9.80;95.10
3550;DHT22;45572;48.804;8.330;2023-04-25T01:14:35;9.80;95.50
3550;DHT22;45572;48.804;8.330;2023-04-25T01:17:04;9.90;95.30
3550;DHT22;45572;48.804;8.330;2023-04-25T01:19:34;9.90;95.10
3550;DHT22;45572;48.804;8.330;2023-04-25T01:22:03;9.90;95.20
3550;DHT22;45572;48.804;8.330;2023-04-25T01:24:32;9.90;95.10
3550;DHT22;45572;48.804;8.330;2023-04-25T01:27:00;9.90;95.10
3550;DHT22;45572;48.804;8.330;2023-04-25T01:29:29;9.90;95.10
3550;DHT22;45572;48.804;8.330;2023-04-25T01:31:57;10.00;94.90
3550;DHT22;45572;48.804;8.330;2023-04-25T01:34:26;10.10;94.80
3550;DHT22;45572;48.804;8.330;2023-04-25T01:37:05;10.00;94.70
3550;DHT22;45572;48.804;8.330;2023-04-25T01:39:33;10.00;94.80
3550;DHT22;45572;48.804;8.330;2023-04-25T01:42:01;10.00;94.80
3550;DHT22;45572;48.804;8.330;2023-04-25T01:44:30;9.90;94.80
3550;DHT22;45572;48.804;8.330;2023-04-25T01:46:58;9.80;95.40
3550;DHT22;45572;48.804;8.330;2023-04-25T01:49:25;9.60;95.50
3550;DHT22;45572;48.804;8.330;2023-04-25T01:51:53;9.60;95.70
3550;DHT22;45572;48.804;8.330;2023-04-25T01:54:22;9.50;95.60
3550;DHT22;45572;48.804;8.330;2023-04-25T01:56:51;9.20;96.00
3550;DHT22;45572;48.804;8.330;2023-04-25T01:59:20;9.10;96.60
3550;DHT22;45572;48.804;8.330;2023-04-25T02:02:08;9.20;96.80
3550;DHT22;45572;48.804;8.330;2023-04-25T02:04:36;9.20;96.80
3550;DHT22;45572;48.804;8.330;2023-04-25T02:07:05;8.90;96.70
3550;DHT22;45572;48.804;8.330;2023-04-25T02:09:44;9.00;96.80
3550;DHT22;45572;48.804;8.330;2023-04-25T02:12:12;8.90;96.80
3550;DHT22;45572;48.804;8.330;2023-04-25T02:15:00;9.00;96.80
3550;DHT22;45572;48.804;8.330;2023-04-25T02:17:47;9.20;96.80
3550;DHT22;45572;48.804;8.330;2023-04-25T02:20:15;9.20;96.80
3550;DHT22;45572;48.804;8.330;2023-04-25T02:22:43;9.40;96.80
3550;DHT22;45572;48.804;8.330;2023-04-25T02:25:13;9.50;96.80
3550;DHT22;45572;48.804;8.330;2023-04-25T02:27:42;9.60;96.50
3550;DHT22;45572;48.804;8.330;2023-04-25T02:30:10;9.70;96.10
3550;DHT22;45572;48.804;8.330;2023-04-25T02:32:42;9.80;95.70
3550;DHT22;45572;48.804;8.330;2023-04-25T02:35:10;9.90;95.50
3550;DHT22;45572;48.804;8.330;2023-04-25T02:37:40;10.00;95.30
3550;DHT22;45572;48.804;8.330;2023-04-25T02:40:08;9.90;94.80
3550;DHT22;45572;48.804;8.330;2023-04-25T02:42:37;10.00;94.80
3550;DHT22;45572;48.804;8.330;2023-04-25T02:45:06;10.10;94.50
3550;DHT22;45572;48.804;8.330;2023-04-25T02:47:34;10.00;94.20
3550;DHT22;45572;48.804;8.330;2023-04-25T02:50:02;10.10;94.40
3550;DHT22;45572;48.804;8.330;2023-04-25T02:52:30;10.10;93.90
3550;DHT22;45572;48.804;8.330;2023-04-25T02:55:08;10.10;93.70
3550;DHT22;45572;48.804;8.330;2023-04-25T02:57:39;10.00;93.40
3550;DHT22;45572;48.804;8.330;2023-04-25T03:00:10;9.90;94.00
3550;DHT22;45572;48.804;8.330;2023-04-25T03:02:42;9.90;94.50
3550;DHT22;45572;48.804;8.330;2023-04-25T03:05:10;9.90;94.30
3550;DHT22;45572;48.804;8.330;2023-04-25T03:07:38;9.90;94.30
3550;DHT22;45572;48.804;8.330;2023-04-25T03:10:10;9.90;93.90
3550;DHT22;45572;48.804;8.330;2023-04-25T03:12:39;9.90;93.90
3550;DHT22;45572;48.804;8.330;2023-04-25T03:15:07;9.90;93.90
3550;DHT22;45572;48.804;8.330;2023-04-25T03:17:35;9.90;93.90
3550;DHT22;45572;48.804;8.330;2023-04-25T03:20:04;9.90;93.90
3550;DHT22;45572;48.804;8.330;2023-04-25T03:22:34;10.00;93.90
3550;DHT22;45572;48.804;8.330;2023-04-25T03:25:02;10.00;93.90
3550;DHT22;45572;48.804;8.330;2023-04-25T03:27:30;10.00;93.80
3550;DHT22;45572;48.804;8.330;2023-04-25T03:29:59;10.00;93.70
3550;DHT22;45572;48.804;8.330;2023-04-25T03:32:28;10.00;93.70
3550;DHT22;45572;48.804;8.330;2023-04-25T03:34:56;10.00;93.60
3550;DHT22;45572;48.804;8.330;2023-04-25T03:37:26;10.00;93.60
3550;DHT22;45572;48.804;8.330;2023-04-25T03:39:54;10.00;93.50
3550;DHT22;45572;48.804;8.330;2023-04-25T03:42:25;10.00;93.50
3550;DHT22;45572;48.804;8.330;2023-04-25T03:44:53;10.00;93.10
3550;DHT22;45572;48.804;8.330;2023-04-25T03:47:22;10.10;92.90
3550;DHT22;45572;48.804;8.330;2023-04-25T03:49:50;10.20;92.50
3550;DHT22;45572;48.804;8.330;2023-04-25T03:52:20;10.20;92.70
3550;DHT22;45572;48.804;8.330;2023-04-25T03:54:49;10.00;92.80
3550;DHT22;45572;48.804;8.330;2023-04-25T03:57:19;9.90;93.10
3550;DHT22;45572;48.804;8.330;2023-04-25T03:59:47;9.80;93.20
3550;DHT22;45572;48.804;8.330;2023-04-25T04:02:15;9.90;93.70
3550;DHT22;45572;48.804;8.330;2023-04-25T04:04:45;9.80;93.70
3550;DHT22;45572;48.804;8.330;2023-04-25T04:07:13;9.80;93.90
3550;DHT22;45572;48.804;8.330;2023-04-25T04:09:45;9.80;94.10
3550;DHT22;45572;48.804;8.330;2023-04-25T04:12:18;9.80;94.30
3550;DHT22;45572;48.804;8.330;2023-04-25T04:14:47;9.80;94.50
3550;DHT22;45572;48.804;8.330;2023-04-25T04:17:14;9.80;94.70
3550;DHT22;45572;48.804;8.330;2023-04-25T04:19:44;9.80;94.60
3550;DHT22;45572;48.804;8.330;2023-04-25T04:22:17;9.70;94.70
3550;DHT22;45572;48.804;8.330;2023-04-25T04:24:46;9.70;94.90
3550;DHT22;45572;48.804;8.330;2023-04-25T04:27:20;9.70;95.10
3550;DHT22;45572;48.804;8.330;2023-04-25T04:30:09;9.70;95.20
3550;DHT22;45572;48.804;8.330;2023-04-25T04:32:47;9.70;95.20
3550;DHT22;45572;48.804;8.330;2023-04-25T04:35:20;9.70;95.10
3550;DHT22;45572;48.804;8.330;2023-04-25T04:37:50;9.70;95.00
3550;DHT22;45572;48.804;8.330;2023-04-25T04:40:20;9.80;94.90
3550;DHT22;45572;48.804;8.330;2023-04-25T04:43:00;9.80;94.80
3550;DHT22;45572;48.804;8.330;2023-04-25T04:45:48;9.80;94.70
3550;DHT22;45572;48.804;8.330;2023-04-25T04:48:31;9.80;94.80
3550;DHT22;45572;48.804;8.330;2023-04-25T04:51:18;9.70;95.00
3550;DHT22;45572;48.804;8.330;2023-04-25T04:54:00;9.70;95.20
3550;DHT22;45572;48.804;8.330;2023-04-25T04:56:45;9.80;95.40
3550;DHT22;45572;48.804;8.330;2023-04-25T04:59:26;9.80;95.50
3550;DHT22;45572;48.804;8.330;2023-04-25T05:02:14;9.80;95.70
3550;DHT22;45572;48.804;8.330;2023-04-25T05:05:02;9.80;95.90
3550;DHT22;45572;48.804;8.330;2023-04-25T05:07:47;9.90;96.00
3550;DHT22;45572;48.804;8.330;2023-04-25T05:10:26;9.90;95.80
3550;DHT22;45572;48.804;8.330;2023-04-25T05:13:03;9.90;95.60
3550;DHT22;45572;48.804;8.330;2023-04-25T05:15:50;9.80;95.70
3550;DHT22;45572;48.804;8.330;2023-04-25T05:18:30;9.80;95.90
3550;DHT22;45572;48.804;8.330;2023-04-25T05:21:06;9.80;96.00
3550;DHT22;45572;48.804;8.330;2023-04-25T05:23:47;9.80;96.20
3550;DHT22;45572;48.804;8.330;2023-04-25T05:26:37;9.80;96.40
3550;DHT22;45572;48.804;8.330;2023-04-25T05:29:21;9.80;96.30
3550;DHT22;45572;48.804;8.330;2023-04-25T05:32:12;9.80;95.90
3550;DHT22;45572;48.804;8.330;2023-04-25T05:34:41;9.60;96.00
3550;DHT22;45572;48.804;8.330;2023-04-25T05:37:20;9.60;95.90
3550;DHT22;45572;48.804;8.330;2023-04-25T05:40:03;9.50;96.10
3550;DHT22;45572;48.804;8.330;2023-04-25T05:42:54;9.50;96.10
3550;DHT22;45572;48.804;8.330;2023-04-25T05:45:35;9.50;96.20
3550;DHT22;45572;48.804;8.330;2023-04-25T05:48:10;9.50;96.50
3550;DHT22;45572;48.804;8.330;2023-04-25T05:50:43;9.60;96.80
3550;DHT22;45572;48.804;8.330;2023-04-25T05:53:22;9.60;96.70
3550;DHT22;45572;48.804;8.330;2023-04-25T05:56:01;9.60;96.80
3550;DHT22;45572;48.804;8.330;2023-04-25T05:58:29;9.40;96.10
3550;DHT22;45572;48.804;8.330;2023-04-25T06:00:59;9.20;96.80
3550;DHT22;45572;48.804;8.330;2023-04-25T06:03:27;9.20;96.80
3550;DHT22;45572;48.804;8.330;2023-04-25T06:05:57;9.10;96.80
3550;DHT22;45572;48.804;8.330;2023-04-25T06:08:25;9.10;96.80
3550;DHT22;45572;48.804;8.330;2023-04-25T06:10:53;9.00;96.80
3550;DHT22;45572;48.804;8.330;2023-04-25T06:13:23;9.10;96.80
3550;DHT22;45572;48.804;8.330;2023-04-25T06:15:52;9.30;96.80
3550;DHT22;45572;48.804;8.330;2023-04-25T06:18:20;9.30;96.80
3550;DHT22;45572;48.804;8.330;2023-04-25T06:20:48;9.30;96.40
3550;DHT22;45572;48.804;8.330;2023-04-25T06:23:17;9.10;96.40
3550;DHT22;45572;48.804;8.330;2023-04-25T06:25:51;9.20;96.80
3550;DHT22;45572;48.804;8.330;2023-04-25T06:28:19;9.20;96.80
3550;DHT22;45572;48.804;8.330;2023-04-25T06:30:49;9.30;96.80
3550;DHT22;45572;48.804;8.330;2023-04-25T06:33:19;9.30;96.60
3550;DHT22;45572;48.804;8.330;2023-04-25T06:35:48;9.00;96.10
3550;DHT22;45572;48.804;8.330;2023-04-25T06:38:20;8.70;96.20
3550;DHT22;45572;48.804;8.330;2023-04-25T06:40:50;8.60;96.80
3550;DHT22;45572;48.804;8.330;2023-04-25T06:43:18;8.70;96.80
3550;DHT22;45572;48.804;8.330;2023-04-25T06:46:02;8.70;96.80
3550;DHT22;45572;48.804;8.330;2023-04-25T06:48:40;8.70;96.80
3550;DHT22;45572;48.804;8.330;2023-04-25T06:51:08;8.80;96.80
3550;DHT22;45572;48.804;8.330;2023-04-25T06:53:38;8.80;96.80
3550;DHT22;45572;48.804;8.330;2023-04-25T06:56:09;8.80;96.80
3550;DHT22;45572;48.804;8.330;2023-04-25T06:58:59;8.70;96.70
3550;DHT22;45572;48.804;8.330;2023-04-25T07:01:33;8.70;96.80
3550;DHT22;45572;48.804;8.330;2023-04-25T07:04:05;8.50;96.80
3550;DHT22;45572;48.804;8.330;2023-04-25T07:06:39;8.50;96.80
3550;DHT22;45572;48.804;8.330;2023-04-25T07:09:11;8.50;96.80
3550;DHT22;45572;48.804;8.330;2023-04-25T07:11:41;8.50;96.80
3550;DHT22;45572;48.804;8.330;2023-04-25T07:14:10;8.50;96.80
3550;DHT22;45572;48.804;8.330;2023-04-25T07:16:40;8.50;96.80
3550;DHT22;45572;48.804;8.330;2023-04-25T07:19:09;8.60;96.80
3550;DHT22;45572;48.804;8.330;2023-04-25T07:21:37;8.70;96.80
3550;DHT22;45572;48.804;8.330;2023-04-25T07:24:06;8.80;96.80
3550;DHT22;45572;48.804;8.330;2023-04-25T07:26:39;8.60;96.80
3550;DHT22;45572;48.804;8.330;2023-04-25T07:29:24;8.40;96.40
3550;DHT22;45572;48.804;8.330;2023-04-25T07:31:53;8.40;96.60
3550;DHT22;45572;48.804;8.330;2023-04-25T07:34:21;8.30;96.80
3550;DHT22;45572;48.804;8.330;2023-04-25T07:36:49;8.30;96.80
3550;DHT22;45572;48.804;8.330;2023-04-25T07:39:18;8.30;96.80
3550;DHT22;45572;48.804;8.330;2023-04-25T07:41:46;8.20;96.80
3550;DHT22;45572;48.804;8.330;2023-04-25T07:44:20;8.30;96.80
3550;DHT22;45572;48.804;8.330;2023-04-25T07:46:48;8.30;96.80
3550;DHT22;45572;48.804;8.330;2023-04-25T07:49:18;8.30;96.80
3550;DHT22;45572;48.804;8.330;2023-04-25T07:51:46;8.40;96.80
3550;DHT22;45572;48.804;8.330;2023-04-25T07:54:17;8.30;96.80
3550;DHT22;45572;48.804;8.330;2023-04-25T07:56:50;8.30;96.80
3550;DHT22;45572;48.804;8.330;2023-04-25T07:59:25;8.20;96.80
3550;DHT22;45572;48.804;8.330;2023-04-25T08:01:57;8.30;96.80
3550;DHT22;45572;48.804;8.330;2023-04-25T08:04:26;8.50;96.80
3550;DHT22;45572;48.804;8.330;2023-04-25T08:06:59;8.60;96.80
3550;DHT22;45572;48.804;8.330;2023-04-25T08:09:31;8.60;96.80
3550;DHT22;45572;48.804;8.330;2023-04-25T08:12:03;8.70;96.80
3550;DHT22;45572;48.804;8.330;2023-04-25T08:14:32;8.80;96.80
3550;DHT22;45572;48.804;8.330;2023-04-25T08:17:04;8.80;96.80
3550;DHT22;45572;48.804;8.330;2023-04-25T08:19:39;8.70;96.80
3550;DHT22;45572;48.804;8.330;2023-04-25T08:22:16;8.60;96.80
3550;DHT22;45572;48.804;8.330;2023-04-25T08:24:53;8.60;96.80
3550;DHT22;45572;48.804;8.330;2023-04-25T08:27:21;8.70;96.80
3550;DHT22;45572;48.804;8.330;2023-04-25T08:29:50;8.70;96.80
3550;DHT22;45572;48.804;8.330;2023-04-25T08:32:19;8.70;96.80
3550;DHT22;45572;48.804;8.330;2023-04-25T08:35:09;8.70;96.80
3550;DHT22;45572;48.804;8.330;2023-04-25T08:37:37;8.50;96.80
3550;DHT22;45572;48.804;8.330;2023-04-25T08:40:13;8.40;96.80
3550;DHT22;45572;48.804;8.330;2023-04-25T08:42:54;8.30;96.80
3550;DHT22;45572;48.804;8.330;2023-04-25T08:45:23;8.40;96.80
3550;DHT22;45572;48.804;8.330;2023-04-25T08:47:54;8.40;96.80
3550;DHT22;45572;48.804;8.330;2023-04-25T08:50:27;8.20;96.80
3550;DHT22;45572;48.804;8.330;2023-04-25T08:52:59;8.00;96.80
3550;DHT22;45572;48.804;8.330;2023-04-25T08:55:31;7.80;96.80
3550;DHT22;45572;48.804;8.330;2023-04-25T08:57:59;7.90;96.80
3550;DHT22;45572;48.804;8.330;2023-04-25T09:00:31;7.80;96.80
3550;DHT22;45572;48.804;8.330;2023-04-25T09:03:03;7.80;96.80
3550;DHT22;45572;48.804;8.330;2023-04-25T09:05:34;7.90;96.80
3550;DHT22;45572;48.804;8.330;2023-04-25T09:08:03;7.80;96.80
3550;DHT22;45572;48.804;8.330;2023-04-25T09:10:34;7.50;96.80
3550;DHT22;45572;48.804;8.330;2023-04-25T09:13:06;7.50;96.80
3550;DHT22;45572;48.804;8.330;2023-04-25T09:15:57;7.60;96.80
3550;DHT22;45572;48.804;8.330;2023-04-25T09:18:47;7.80;96.80
3550;DHT22;45572;48.804;8.330;2023-04-25T09:21:22;7.80;96.80
3550;DHT22;45572;48.804;8.330;2023-04-25T09:23:51;7.60;96.80
3550;DHT22;45572;48.804;8.330;2023-04-25T09:26:22;7.70;96.80
3550;DHT22;45572;48.804;8.330;2023-04-25T09:29:05;7.90;96.80
3550;DHT22;45572;48.804;8.330;2023-04-25T09:31:39;7.90;96.80
3550;DHT22;45572;48.804;8.330;2023-04-25T09:34:10;8.00;96.80
3550;DHT22;45572;48.804;8.330;2023-04-25T09:36:55;8.10;96.80
3550;DHT22;45572;48.804;8.330;2023-04-25T09:39:44;8.20;96.80
3550;DHT22;45572;48.804;8.330;2023-04-25T09:42:14;8.20;96.80
3550;DHT22;45572;48.804;8.330;2023-04-25T09:44:44;8.20;96.80
3550;DHT22;45572;48.804;8.330;2023-04-25T09:47:14;8.20;96.80
3550;DHT22;45572;48.804;8.330;2023-04-25T09:49:45;8.20;96.80
3550;DHT22;45572;48.804;8.330;2023-04-25T09:52:17;8.40;96.80
3550;DHT22;45572;48.804;8.330;2023-04-25T09:55:07;8.40;96.80
3550;DHT22;45572;48.804;8.330;2023-04-25T09:57:36;8.40;96.80
3550;DHT22;45572;48.804;8.330;2023-04-25T10:00:09;8.50;96.80
3550;DHT22;45572;48.804;8.330;2023-04-25T10:03:00;8.30;96.60
3550;DHT22;45572;48.804;8.330;2023-04-25T10:05:50;8.10;96.80
3550;DHT22;45572;48.804;8.330;2023-04-25T10:08:20;8.30;96.80
3550;DHT22;45572;48.804;8.330;2023-04-25T10:10:49;8.30;96.80
3550;DHT22;45572;48.804;8.330;2023-04-25T10:13:18;8.30;96.80
3550;DHT22;45572;48.804;8.330;2023-04-25T10:15:49;8.10;96.80
3550;DHT22;45572;48.804;8.330;2023-04-25T10:18:21;8.30;96.80
3550;DHT22;45572;48.804;8.330;2023-04-25T10:20:49;8.30;96.80
3550;DHT22;45572;48.804;8.330;2023-04-25T10:23:20;8.50;96.80
3550;DHT22;45572;48.804;8.330;2023-04-25T10:25:48;8.60;96.80
3550;DHT22;45572;48.804;8.330;2023-04-25T10:28:16;8.60;96.80
3550;DHT22;45572;48.804;8.330;2023-04-25T10:30:57;8.70;96.80
3550;DHT22;45572;48.804;8.330;2023-04-25T10:33:35;8.60;96.80
3550;DHT22;45572;48.804;8.330;2023-04-25T10:36:09;8.50;96.80
3550;DHT22;45572;48.804;8.330;2023-04-25T10:38:37;8.40;96.80
3550;DHT22;45572;48.804;8.330;2023-04-25T10:41:06;8.50;96.80
3550;DHT22;45572;48.804;8.330;2023-04-25T10:43:38;8.40;96.80
3550;DHT22;45572;48.804;8.330;2023-04-25T10:46:16;8.50;96.80
3550;DHT22;45572;48.804;8.330;2023-04-25T10:48:47;8.50;96.80
3550;DHT22;45572;48.804;8.330;2023-04-25T10:51:18;8.60;96.80
3550;DHT22;45572;48.804;8.330;2023-04-25T10:53:46;8.60;96.80
3550;DHT22;45572;48.804;8.330;2023-04-25T10:56:19;8.60;96.80
3550;DHT22;45572;48.804;8.330;2023-04-25T10:58:48;8.50;96.80
3550;DHT22;45572;48.804;8.330;2023-04-25T11:01:20;8.60;96.80
3550;DHT22;45572;48.804;8.330;2023-04-25T11:03:57;8.90;96.80
3550;DHT22;45572;48.804;8.330;2023-04-25T11:06:31;9.20;96.80
3550;DHT22;45572;48.804;8.330;2023-04-25T11:09:10;9.30;96.70
3550;DHT22;45572;48.804;8.330;2023-04-25T11:11:39;9.50;96.70
3550;DHT22;45572;48.804;8.330;2023-04-25T11:14:40;9.60;96.80
3550;DHT22;45572;48.804;8.330;2023-04-25T11:17:25;9.70;96.70
3550;DHT22;45572;48.804;8.330;2023-04-25T11:19:54;9.90;96.50
3550;DHT22;45572;48.804;8.330;2023-04-25T11:22:27;10.00;96.30
3550;DHT22;45572;48.804;8.330;2023-04-25T11:25:05;10.10;95.50
3550;DHT22;45572;48.804;8.330;2023-04-25T11:27:38;10.20;95.60
3550;DHT22;45572;48.804;8.330;2023-04-25T11:30:11;10.20;95.50
3550;DHT22;45572;48.804;8.330;2023-04-25T11:32:40;10.00;93.80
3550;DHT22;45572;48.804;8.330;2023-04-25T11:35:10;9.90;93.80
3550;DHT22;45572;48.804;8.330;2023-04-25T11:37:44;9.90;92.70
3550;DHT22;45572;48.804;8.330;2023-04-25T11:40:12;9.80;92.90
3550;DHT22;45572;48.804;8.330;2023-04-25T11:42:44;9.70;93.10
3550;DHT22;45572;48.804;8.330;2023-04-25T11:45:13;9.80;93.60
3550;DHT22;45572;48.804;8.330;2023-04-25T11:47:42;9.80;93.70
3550;DHT22;45572;48.804;8.330;2023-04-25T11:50:11;9.80;93.70
3550;DHT22;45572;48.804;8.330;2023-04-25T11:52:42;9.80;93.30
3550;DHT22;45572;48.804;8.330;2023-04-25T11:55:13;9.80;93.40
3550;DHT22;45572;48.804;8.330;2023-04-25T11:57:42;9.80;93.70
3550;DHT22;45572;48.804;8.330;2023-04-25T12:00:13;9.80;93.20
3550;DHT22;45572;48.804;8.330;2023-04-25T12:02:45;9.70;93.10
3550;DHT22;45572;48.804;8.330;2023-04-25T12:05:16;9.70;93.10
3550;DHT22;45572;48.804;8.330;2023-04-25T12:07:47;9.70;93.00
3550;DHT22;45572;48.804;8.330;2023-04-25T12:10:17;9.70;93.90
3550;DHT22;45572;48.804;8.330;2023-04-25T12:12:49;9.70;94.50
3550;DHT22;45572;48.804;8.330;2023-04-25T12:15:24;9.80;94.50
3550;DHT22;45572;48.804;8.330;2023-04-25T12:17:54;9.80;94.10
3550;DHT22;45572;48.804;8.330;2023-04-25T12:20:25;9.90;93.30
3550;DHT22;45572;48.804;8.330;2023-04-25T12:22:54;9.90;93.10
3550;DHT22;45572;48.804;8.330;2023-04-25T12:25:37;10.00;93.30
3550;DHT22;45572;48.804;8.330;2023-04-25T12:28:12;10.10;93.10
3550;DHT22;45572;48.804;8.330;2023-04-25T12:30:56;10.20;93.30
3550;DHT22;45572;48.804;8.330;2023-04-25T12:33:28;10.30;93.40
3550;DHT22;45572;48.804;8.330;2023-04-25T12:35:58;10.50;93.10
3550;DHT22;45572;48.804;8.330;2023-04-25T12:38:31;10.60;91.80
3550;DHT22;45572;48.804;8.330;2023-04-25T12:41:03;10.70;92.00
3550;DHT22;45572;48.804;8.330;2023-04-25T12:43:31;10.80;92.50
3550;DHT22;45572;48.804;8.330;2023-04-25T12:46:02;10.80;91.90
3550;DHT22;45572;48.804;8.330;2023-04-25T12:48:31;10.90;91.70
3550;DHT22;45572;48.804;8.330;2023-04-25T12:51:00;11.00;91.30
3550;DHT22;45572;48.804;8.330;2023-04-25T12:53:28;11.10;91.80
3550;DHT22;45572;48.804;8.330;2023-04-25T12:56:03;11.20;91.90
3550;DHT22;45572;48.804;8.330;2023-04-25T12:58:30;11.10;92.10
3550;DHT22;45572;48.804;8.330;2023-04-25T13:01:00;11.20;92.20
3550;DHT22;45572;48.804;8.330;2023-04-25T13:03:27;11.20;91.50
3550;DHT22;45572;48.804;8.330;2023-04-25T13:05:55;11.30;91.00
3550;DHT22;45572;48.804;8.330;2023-04-25T13:08:24;11.30;89.70
3550;DHT22;45572;48.804;8.330;2023-04-25T13:10:52;11.10;88.80
3550;DHT22;45572;48.804;8.330;2023-04-25T13:13:21;11.10;89.70
3550;DHT22;45572;48.804;8.330;2023-04-25T13:15:48;11.10;90.90
3550;DHT22;45572;48.804;8.330;2023-04-25T13:18:16;11.10;91.30
3550;DHT22;45572;48.804;8.330;2023-04-25T13:20:44;11.00;90.90
3550;DHT22;45572;48.804;8.330;2023-04-25T13:23:12;11.00;91.40
3550;DHT22;45572;48.804;8.330;2023-04-25T13:25:41;10.90;92.00
3550;DHT22;45572;48.804;8.330;2023-04-25T13:28:09;10.70;91.80
3550;DHT22;45572;48.804;8.330;2023-04-25T13:30:37;10.50;91.80
3550;DHT22;45572;48.804;8.330;2023-04-25T13:33:05;10.30;93.10
3550;DHT22;45572;48.804;8.330;2023-04-25T13:35:34;10.20;94.00
3550;DHT22;45572;48.804;8.330;2023-04-25T13:38:03;10.30;94.70
3550;DHT22;45572;48.804;8.330;2023-04-25T13:40:31;10.40;95.10
3550;DHT22;45572;48.804;8.330;2023-04-25T13:43:02;10.30;94.90
3550;DHT22;45572;48.804;8.330;2023-04-25T13:45:34;10.00;94.20
3550;DHT22;45572;48.804;8.330;2023-04-25T13:48:03;10.30;95.80
3550;DHT22;45572;48.804;8.330;2023-04-25T13:50:31;10.70;96.80
3550;DHT22;45572;48.804;8.330;2023-04-25T13:52:59;10.60;94.20
3550;DHT22;45572;48.804;8.330;2023-04-25T13:55:27;10.40;93.30
3550;DHT22;45572;48.804;8.330;2023-04-25T13:57:55;10.40;93.20
3550;DHT22;45572;48.804;8.330;2023-04-25T14:00:24;10.60;93.80
3550;DHT22;45572;48.804;8.330;2023-04-25T14:02:54;10.60;93.20
3550;DHT22;45572;48.804;8.330;2023-04-25T14:05:22;10.60;93.80
3550;DHT22;45572;48.804;8.330;2023-04-25T14:07:52;10.40;93.80
3550;DHT22;45572;48.804;8.330;2023-04-25T14:10:21;10.40;93.90
3550;DHT22;45572;48.804;8.330;2023-04-25T14:12:53;10.40;93.40
3550;DHT22;45572;48.804;8.330;2023-04-25T14:15:24;10.30;93.50
3550;DHT22;45572;48.804;8.330;2023-04-25T14:17:55;10.40;93.80
3550;DHT22;45572;48.804;8.330;2023-04-25T14:20:25;10.60;92.90
3550;DHT22;45572;48.804;8.330;2023-04-25T14:22:53;10.70;93.40
3550;DHT22;45572;48.804;8.330;2023-04-25T14:25:22;10.80;92.00
3550;DHT22;45572;48.804;8.330;2023-04-25T14:27:51;10.90;91.70
3550;DHT22;45572;48.804;8.330;2023-04-25T14:30:20;11.00;91.60
3550;DHT22;45572;48.804;8.330;2023-04-25T14:32:49;11.20;91.70
3550;DHT22;45572;48.804;8.330;2023-04-25T14:35:18;11.30;90.00
3550;DHT22;45572;48.804;8.330;2023-04-25T14:37:45;11.20;88.00
3550;DHT22;45572;48.804;8.330;2023-04-25T14:40:13;11.10;88.10
3550;DHT22;45572;48.804;8.330;2023-04-25T14:42:46;11.00;87.80
3550;DHT22;45572;48.804;8.330;2023-04-25T14:45:14;11.10;87.60
3550;DHT22;45572;48.804;8.330;2023-04-25T14:47:41;11.20;85.30
3550;DHT22;45572;48.804;8.330;2023-04-25T14:50:11;11.30;86.00
3550;DHT22;45572;48.804;8.330;2023-04-25T14:52:39;11.10;85.20
3550;DHT22;45572;48.804;8.330;2023-04-25T14:55:08;11.30;86.80
3550;DHT22;45572;48.804;8.330;2023-04-25T14:57:38;11.40;86.60
3550;DHT22;45572;48.804;8.330;2023-04-25T15:00:07;11.40;85.10
3550;DHT22;45572;48.804;8.330;2023-04-25T15:02:36;11.50;85.90
3550;DHT22;45572;48.804;8.330;2023-04-25T15:05:06;11.60;86.40
3550;DHT22;45572;48.804;8.330;2023-04-25T15:07:36;11.70;85.80
3550;DHT22;45572;48.804;8.330;2023-04-25T15:10:06;11.60;84.00
3550;DHT22;45572;48.804;8.330;2023-04-25T15:12:40;11.60;85.20
3550;DHT22;45572;48.804;8.330;2023-04-25T15:15:08;11.70;85.00
3550;DHT22;45572;48.804;8.330;2023-04-25T15:17:43;11.80;83.60
3550;DHT22;45572;48.804;8.330;2023-04-25T15:20:13;11.90;81.80
3550;DHT22;45572;48.804;8.330;2023-04-25T15:22:43;11.90;81.80
3550;DHT22;45572;48.804;8.330;2023-04-25T15:25:11;12.10;83.30
3550;DHT22;45572;48.804;8.330;2023-04-25T15:27:39;12.30;83.30
3550;DHT22;45572;48.804;8.330;2023-04-25T15:30:10;12.30;81.30
3550;DHT22;45572;48.804;8.330;2023-04-25T15:32:40;12.30;80.50
3550;DHT22;45572;48.804;8.330;2023-04-25T15:35:10;12.50;80.90
3550;DHT22;45572;48.804;8.330;2023-04-25T15:37:38;12.60;82.20
3550;DHT22;45572;48.804;8.330;2023-04-25T15:40:10;12.80;81.20
3550;DHT22;45572;48.804;8.330;2023-04-25T15:42:41;13.00;82.00
3550;DHT22;45572;48.804;8.330;2023-04-25T15:45:10;13.00;80.60
3550;DHT22;45572;48.804;8.330;2023-04-25T15:47:38;13.10;81.10
3550;DHT22;45572;48.804;8.330;2023-04-25T15:50:09;12.90;80.80
3550;DHT22;45572;48.804;8.330;2023-04-25T15:52:40;12.80;82.90
3550;DHT22;45572;48.804;8.330;2023-04-25T15:55:10;12.60;83.20
3550;DHT22;45572;48.804;8.330;2023-04-25T15:57:39;12.40;84.60
3550;DHT22;45572;48.804;8.330;2023-04-25T16:00:14;12.30;85.80
3550;DHT22;45572;48.804;8.330;2023-04-25T16:02:44;12.10;86.20
3550;DHT22;45572;48.804;8.330;2023-04-25T16:05:14;11.90;87.10
3550;DHT22;45572;48.804;8.330;2023-04-25T16:07:43;11.80;87.80
3550;DHT22;45572;48.804;8.330;2023-04-25T16:10:14;11.60;88.10
3550;DHT22;45572;48.804;8.330;2023-04-25T16:12:49;11.50;88.50
3550;DHT22;45572;48.804;8.330;2023-04-25T16:15:17;11.40;89.70
3550;DHT22;45572;48.804;8.330;2023-04-25T16:17:45;11.30;89.50
3550;DHT22;45572;48.804;8.330;2023-04-25T16:20:16;11.20;89.90
3550;DHT22;45572;48.804;8.330;2023-04-25T16:22:43;11.10;90.10
3550;DHT22;45572;48.804;8.330;2023-04-25T16:25:17;11.10;89.90